sensor_id;sensor_type;location;lat;lon;timestamp;P1;durP1;ratioP1;P2;durP2;ratioP2
20363;SDS011;10340;53.664;9.908;2023-04-07T00:00:14;0.50;;;0.50;;
20363;SDS011;10340;53.664;9.908;2023-04-07T00:02:42;0.30;;;0.30;;
20363;SDS011;10340;53.664;9.908;2023-04-07T00:05:10;0.32;;;0.32;;
20363;SDS011;10340;53.664;9.908;2023-04-07T00:07:38;0.40;;;0.40;;
20363;SDS011;10340;53.664;9.908;2023-04-07T00:10:05;0.40;;;0.40;;
20363;SDS011;10340;53.664;9.908;2023-04-07T00:12:33;0.40;;;0.40;;
20363;SDS011;10340;53.664;9.908;2023-04-07T00:15:00;0.40;;;0.40;;
20363;SDS011;10340;53.664;9.908;2023-04-07T00:17:27;0.50;;;0.50;;
20363;SDS011;10340;53.664;9.908;2023-04-07T00:19:54;0.40;;;0.40;;
20363;SDS011;10340;53.664;9.908;2023-04-07T00:22:22;0.43;;;0.43;;
20363;SDS011;10340;53.664;9.908;2023-04-07T00:24:49;0.40;;;0.40;;
20363;SDS011;10340;53.664;9.908;2023-04-07T00:27:16;0.50;;;0.50;;
20363;SDS011;10340;53.664;9.908;2023-04-07T00:29:43;0.37;;;0.37;;
20363;SDS011;10340;53.664;9.908;2023-04-07T00:32:11;0.50;;;0.50;;
20363;SDS011;10340;53.664;9.908;2023-04-07T00:34:38;0.45;;;0.45;;
20363;SDS011;10340;53.664;9.908;2023-04-07T00:37:05;0.45;;;0.45;;
20363;SDS011;10340;53.664;9.908;2023-04-07T00:39:34;0.47;;;0.47;;
20363;SDS011;10340;53.664;9.908;2023-04-07T00:42:02;0.50;;;0.50;;
20363;SDS011;10340;53.664;9.908;2023-04-07T00:44:29;0.43;;;0.43;;
20363;SDS011;10340;53.664;9.908;2023-04-07T00:46:56;0.43;;;0.43;;
20363;SDS011;10340;53.664;9.908;2023-04-07T00:49:24;0.47;;;0.47;;
20363;SDS011;10340;53.664;9.908;2023-04-07T00:51:53;0.40;;;0.40;;
20363;SDS011;10340;53.664;9.908;2023-04-07T00:54:20;0.50;;;0.50;;
20363;SDS011;10340;53.664;9.908;2023-04-07T00:56:49;0.50;;;0.50;;
20363;SDS011;10340;53.664;9.908;2023-04-07T00:59:18;0.40;;;0.40;;
20363;SDS011;10340;53.664;9.908;2023-04-07T01:01:47;0.40;;;0.40;;
20363;SDS011;10340;53.664;9.908;2023-04-07T01:04:23;0.35;;;0.35;;
20363;SDS011;10340;53.664;9.908;2023-04-07T01:06:55;0.40;;;0.40;;
20363;SDS011;10340;53.664;9.908;2023-04-07T01:09:29;0.40;;;0.40;;
20363;SDS011;10340;53.664;9.908;2023-04-07T01:12:04;0.50;;;0.50;;
20363;SDS011;10340;53.664;9.908;2023-04-07T01:14:39;0.50;;;0.50;;
20363;SDS011;10340;53.664;9.908;2023-04-07T01:17:11;0.40;;;0.40;;
20363;SDS011;10340;53.664;9.908;2023-04-07T01:19:42;0.50;;;0.50;;
20363;SDS011;10340;53.664;9.908;2023-04-07T01:22:14;0.50;;;0.50;;
20363;SDS011;10340;53.664;9.908;2023-04-07T01:27:57;0.47;;;0.47;;
20363;SDS011;10340;53.664;9.908;2023-04-07T01:30:38;0.40;;;0.40;;
20363;SDS011;10340;53.664;9.908;2023-04-07T01:33:06;0.40;;;0.40;;
20363;SDS011;10340;53.664;9.908;2023-04-07T01:35:36;0.50;;;0.50;;
20363;SDS011;10340;53.664;9.908;2023-04-07T01:38:05;0.40;;;0.40;;
20363;SDS011;10340;53.664;9.908;2023-04-07T01:40:32;0.50;;;0.50;;
20363;SDS011;10340;53.664;9.908;2023-04-07T01:43:01;0.40;;;0.40;;
20363;SDS011;10340;53.664;9.908;2023-04-07T01:45:28;0.40;;;0.40;;
20363;SDS011;10340;53.664;9.908;2023-04-07T01:47:58;0.40;;;0.40;;
20363;SDS011;10340;53.664;9.908;2023-04-07T01:50:26;0.60;;;0.60;;
20363;SDS011;10340;53.664;9.908;2023-04-07T01:52:54;0.50;;;0.50;;
20363;SDS011;10340;53.664;9.908;2023-04-07T01:55:22;0.40;;;0.40;;
20363;SDS011;10340;53.664;9.908;2023-04-07T01:57:52;0.40;;;0.40;;
20363;SDS011;10340;53.664;9.908;2023-04-07T02:00:19;0.30;;;0.30;;
20363;SDS011;10340;53.664;9.908;2023-04-07T02:02:47;0.50;;;0.50;;
20363;SDS011;10340;53.664;9.908;2023-04-07T02:05:19;0.50;;;0.50;;
20363;SDS011;10340;53.664;9.908;2023-04-07T02:07:48;0.40;;;0.40;;
20363;SDS011;10340;53.664;9.908;2023-04-07T02:10:19;0.50;;;0.50;;
20363;SDS011;10340;53.664;9.908;2023-04-07T02:12:49;0.50;;;0.50;;
20363;SDS011;10340;53.664;9.908;2023-04-07T02:15:17;0.40;;;0.40;;
20363;SDS011;10340;53.664;9.908;2023-04-07T02:17:46;0.40;;;0.40;;
20363;SDS011;10340;53.664;9.908;2023-04-07T02:20:15;0.40;;;0.40;;
20363;SDS011;10340;53.664;9.908;2023-04-07T02:22:44;0.47;;;0.47;;
20363;SDS011;10340;53.664;9.908;2023-04-07T02:25:21;0.37;;;0.37;;
20363;SDS011;10340;53.664;9.908;2023-04-07T02:27:49;0.30;;;0.30;;
20363;SDS011;10340;53.664;9.908;2023-04-07T02:30:17;0.43;;;0.43;;
20363;SDS011;10340;53.664;9.908;2023-04-07T02:32:44;0.30;;;0.30;;
20363;SDS011;10340;53.664;9.908;2023-04-07T02:35:12;0.37;;;0.37;;
20363;SDS011;10340;53.664;9.908;2023-04-07T02:37:39;0.47;;;0.47;;
20363;SDS011;10340;53.664;9.908;2023-04-07T02:40:08;0.40;;;0.40;;
20363;SDS011;10340;53.664;9.908;2023-04-07T02:42:35;0.40;;;0.40;;
20363;SDS011;10340;53.664;9.908;2023-04-07T02:45:02;0.33;;;0.33;;
20363;SDS011;10340;53.664;9.908;2023-04-07T02:47:30;0.40;;;0.40;;
20363;SDS011;10340;53.664;9.908;2023-04-07T02:49:57;0.40;;;0.40;;
20363;SDS011;10340;53.664;9.908;2023-04-07T02:52:24;0.40;;;0.40;;
20363;SDS011;10340;53.664;9.908;2023-04-07T02:54:51;0.40;;;0.40;;
20363;SDS011;10340;53.664;9.908;2023-04-07T02:57:19;0.40;;;0.40;;
20363;SDS011;10340;53.664;9.908;2023-04-07T02:59:46;0.40;;;0.40;;
20363;SDS011;10340;53.664;9.908;2023-04-07T03:02:13;0.37;;;0.37;;
20363;SDS011;10340;53.664;9.908;2023-04-07T03:04:40;0.40;;;0.40;;
20363;SDS011;10340;53.664;9.908;2023-04-07T03:07:07;0.50;;;0.50;;
20363;SDS011;10340;53.664;9.908;2023-04-07T03:09:34;0.47;;;0.47;;
20363;SDS011;10340;53.664;9.908;2023-04-07T03:12:01;0.50;;;0.50;;
20363;SDS011;10340;53.664;9.908;2023-04-07T03:14:30;0.40;;;0.40;;
20363;SDS011;10340;53.664;9.908;2023-04-07T03:16:57;0.40;;;0.40;;
20363;SDS011;10340;53.664;9.908;2023-04-07T03:19:24;0.40;;;0.40;;
20363;SDS011;10340;53.664;9.908;2023-04-07T03:21:51;0.47;;;0.47;;
20363;SDS011;10340;53.664;9.908;2023-04-07T03:24:18;0.40;;;0.40;;
20363;SDS011;10340;53.664;9.908;2023-04-07T03:26:45;0.40;;;0.40;;
20363;SDS011;10340;53.664;9.908;2023-04-07T03:29:12;0.40;;;0.40;;
20363;SDS011;10340;53.664;9.908;2023-04-07T03:31:40;0.47;;;0.47;;
20363;SDS011;10340;53.664;9.908;2023-04-07T03:34:07;0.40;;;0.40;;
20363;SDS011;10340;53.664;9.908;2023-04-07T03:36:35;0.60;;;0.60;;
20363;SDS011;10340;53.664;9.908;2023-04-07T03:39:02;0.40;;;0.40;;
20363;SDS011;10340;53.664;9.908;2023-04-07T03:41:29;0.40;;;0.40;;
20363;SDS011;10340;53.664;9.908;2023-04-07T03:43:56;0.37;;;0.37;;
20363;SDS011;10340;53.664;9.908;2023-04-07T03:46:23;0.50;;;0.50;;
20363;SDS011;10340;53.664;9.908;2023-04-07T03:48:52;0.50;;;0.50;;
20363;SDS011;10340;53.664;9.908;2023-04-07T03:51:19;0.40;;;0.40;;
20363;SDS011;10340;53.664;9.908;2023-04-07T03:53:46;0.50;;;0.50;;
20363;SDS011;10340;53.664;9.908;2023-04-07T03:56:13;0.40;;;0.40;;
20363;SDS011;10340;53.664;9.908;2023-04-07T03:58:41;0.40;;;0.40;;
20363;SDS011;10340;53.664;9.908;2023-04-07T04:01:08;0.57;;;0.57;;
20363;SDS011;10340;53.664;9.908;2023-04-07T04:03:35;0.40;;;0.40;;
20363;SDS011;10340;53.664;9.908;2023-04-07T04:06:04;0.40;;;0.40;;
20363;SDS011;10340;53.664;9.908;2023-04-07T04:08:31;0.50;;;0.50;;
20363;SDS011;10340;53.664;9.908;2023-04-07T04:10:58;0.40;;;0.40;;
20363;SDS011;10340;53.664;9.908;2023-04-07T04:13:25;0.40;;;0.40;;
20363;SDS011;10340;53.664;9.908;2023-04-07T04:15:52;0.40;;;0.40;;
20363;SDS011;10340;53.664;9.908;2023-04-07T04:18:18;0.47;;;0.47;;
20363;SDS011;10340;53.664;9.908;2023-04-07T04:20:46;0.40;;;0.40;;
20363;SDS011;10340;53.664;9.908;2023-04-07T04:23:14;0.40;;;0.40;;
20363;SDS011;10340;53.664;9.908;2023-04-07T04:25:41;0.40;;;0.40;;
20363;SDS011;10340;53.664;9.908;2023-04-07T04:28:08;0.40;;;0.40;;
20363;SDS011;10340;53.664;9.908;2023-04-07T04:30:35;0.37;;;0.37;;
20363;SDS011;10340;53.664;9.908;2023-04-07T04:33:02;0.67;;;0.67;;
20363;SDS011;10340;53.664;9.908;2023-04-07T04:35:29;0.50;;;0.50;;
20363;SDS011;10340;53.664;9.908;2023-04-07T04:37:56;0.50;;;0.50;;
20363;SDS011;10340;53.664;9.908;2023-04-07T04:40:25;0.40;;;0.40;;
20363;SDS011;10340;53.664;9.908;2023-04-07T04:42:52;0.40;;;0.40;;
20363;SDS011;10340;53.664;9.908;2023-04-07T04:45:19;0.30;;;0.30;;
20363;SDS011;10340;53.664;9.908;2023-04-07T04:47:46;0.53;;;0.53;;
20363;SDS011;10340;53.664;9.908;2023-04-07T04:50:13;0.37;;;0.37;;
20363;SDS011;10340;53.664;9.908;2023-04-07T04:52:40;0.60;;;0.60;;
20363;SDS011;10340;53.664;9.908;2023-04-07T04:55:08;0.50;;;0.50;;
20363;SDS011;10340;53.664;9.908;2023-04-07T04:57:36;0.50;;;0.50;;
20363;SDS011;10340;53.664;9.908;2023-04-07T05:00:04;0.60;;;0.60;;
20363;SDS011;10340;53.664;9.908;2023-04-07T05:02:34;0.50;;;0.50;;
20363;SDS011;10340;53.664;9.908;2023-04-07T05:05:01;0.50;;;0.50;;
20363;SDS011;10340;53.664;9.908;2023-04-07T05:07:29;0.40;;;0.40;;
20363;SDS011;10340;53.664;9.908;2023-04-07T05:09:56;0.50;;;0.50;;
20363;SDS011;10340;53.664;9.908;2023-04-07T05:12:22;0.53;;;0.53;;
20363;SDS011;10340;53.664;9.908;2023-04-07T05:14:51;0.50;;;0.50;;
20363;SDS011;10340;53.664;9.908;2023-04-07T05:17:18;0.53;;;0.53;;
20363;SDS011;10340;53.664;9.908;2023-04-07T05:19:45;0.40;;;0.40;;
20363;SDS011;10340;53.664;9.908;2023-04-07T05:22:12;0.40;;;0.40;;
20363;SDS011;10340;53.664;9.908;2023-04-07T05:24:39;0.50;;;0.50;;
20363;SDS011;10340;53.664;9.908;2023-04-07T05:27:06;0.60;;;0.60;;
20363;SDS011;10340;53.664;9.908;2023-04-07T05:29:32;0.40;;;0.40;;
20363;SDS011;10340;53.664;9.908;2023-04-07T05:32:01;0.40;;;0.40;;
20363;SDS011;10340;53.664;9.908;2023-04-07T05:34:30;0.43;;;0.43;;
20363;SDS011;10340;53.664;9.908;2023-04-07T05:36:57;0.50;;;0.50;;
20363;SDS011;10340;53.664;9.908;2023-04-07T05:39:24;0.60;;;0.60;;
20363;SDS011;10340;53.664;9.908;2023-04-07T05:41:51;0.50;;;0.50;;
20363;SDS011;10340;53.664;9.908;2023-04-07T05:44:18;0.50;;;0.50;;
20363;SDS011;10340;53.664;9.908;2023-04-07T05:46:45;0.50;;;0.50;;
20363;SDS011;10340;53.664;9.908;2023-04-07T05:49:13;0.50;;;0.50;;
20363;SDS011;10340;53.664;9.908;2023-04-07T05:51:40;0.50;;;0.50;;
20363;SDS011;10340;53.664;9.908;2023-04-07T05:54:07;0.40;;;0.40;;
20363;SDS011;10340;53.664;9.908;2023-04-07T05:56:34;0.40;;;0.40;;
20363;SDS011;10340;53.664;9.908;2023-04-07T05:59:01;0.40;;;0.40;;
20363;SDS011;10340;53.664;9.908;2023-04-07T06:01:28;0.40;;;0.40;;
20363;SDS011;10340;53.664;9.908;2023-04-07T06:03:55;0.40;;;0.40;;
20363;SDS011;10340;53.664;9.908;2023-04-07T06:06:25;0.33;;;0.33;;
20363;SDS011;10340;53.664;9.908;2023-04-07T06:08:52;0.37;;;0.37;;
20363;SDS011;10340;53.664;9.908;2023-04-07T06:11:19;0.40;;;0.40;;
20363;SDS011;10340;53.664;9.908;2023-04-07T06:13:47;0.35;;;0.35;;
20363;SDS011;10340;53.664;9.908;2023-04-07T06:16:14;0.40;;;0.40;;
20363;SDS011;10340;53.664;9.908;2023-04-07T06:18:41;0.40;;;0.40;;
20363;SDS011;10340;53.664;9.908;2023-04-07T06:21:08;0.50;;;0.50;;
20363;SDS011;10340;53.664;9.908;2023-04-07T06:23:36;0.40;;;0.40;;
20363;SDS011;10340;53.664;9.908;2023-04-07T06:26:03;0.37;;;0.37;;
20363;SDS011;10340;53.664;9.908;2023-04-07T06:28:30;0.40;;;0.40;;
20363;SDS011;10340;53.664;9.908;2023-04-07T06:30:57;0.40;;;0.40;;
20363;SDS011;10340;53.664;9.908;2023-04-07T06:33:24;0.50;;;0.50;;
20363;SDS011;10340;53.664;9.908;2023-04-07T06:35:52;0.30;;;0.30;;
20363;SDS011;10340;53.664;9.908;2023-04-07T06:38:20;0.35;;;0.35;;
20363;SDS011;10340;53.664;9.908;2023-04-07T06:40:49;0.40;;;0.40;;
20363;SDS011;10340;53.664;9.908;2023-04-07T06:43:17;0.40;;;0.40;;
20363;SDS011;10340;53.664;9.908;2023-04-07T06:45:44;0.30;;;0.30;;
20363;SDS011;10340;53.664;9.908;2023-04-07T06:48:10;0.35;;;0.35;;
20363;SDS011;10340;53.664;9.908;2023-04-07T06:50:37;0.43;;;0.43;;
20363;SDS011;10340;53.664;9.908;2023-04-07T06:53:04;0.40;;;0.40;;
20363;SDS011;10340;53.664;9.908;2023-04-07T06:55:31;0.50;;;0.50;;
20363;SDS011;10340;53.664;9.908;2023-04-07T06:58:00;0.30;;;0.30;;
20363;SDS011;10340;53.664;9.908;2023-04-07T07:00:27;0.40;;;0.40;;
20363;SDS011;10340;53.664;9.908;2023-04-07T07:02:55;0.30;;;0.30;;
20363;SDS011;10340;53.664;9.908;2023-04-07T07:05:22;0.40;;;0.40;;
20363;SDS011;10340;53.664;9.908;2023-04-07T07:07:49;0.53;;;0.53;;
20363;SDS011;10340;53.664;9.908;2023-04-07T07:10:16;0.38;;;0.38;;
20363;SDS011;10340;53.664;9.908;2023-04-07T07:12:44;0.40;;;0.40;;
20363;SDS011;10340;53.664;9.908;2023-04-07T07:15:12;0.40;;;0.40;;
20363;SDS011;10340;53.664;9.908;2023-04-07T07:17:39;0.40;;;0.40;;
20363;SDS011;10340;53.664;9.908;2023-04-07T07:20:07;0.30;;;0.30;;
20363;SDS011;10340;53.664;9.908;2023-04-07T07:22:35;0.30;;;0.30;;
20363;SDS011;10340;53.664;9.908;2023-04-07T07:25:02;0.40;;;0.40;;
20363;SDS011;10340;53.664;9.908;2023-04-07T07:27:29;0.30;;;0.30;;
20363;SDS011;10340;53.664;9.908;2023-04-07T07:29:56;0.22;;;0.22;;
20363;SDS011;10340;53.664;9.908;2023-04-07T07:32:25;0.35;;;0.35;;
20363;SDS011;10340;53.664;9.908;2023-04-07T07:34:52;0.30;;;0.30;;
20363;SDS011;10340;53.664;9.908;2023-04-07T07:37:19;0.30;;;0.30;;
20363;SDS011;10340;53.664;9.908;2023-04-07T07:39:46;0.30;;;0.30;;
20363;SDS011;10340;53.664;9.908;2023-04-07T07:42:13;0.30;;;0.30;;
20363;SDS011;10340;53.664;9.908;2023-04-07T07:44:40;0.40;;;0.40;;
20363;SDS011;10340;53.664;9.908;2023-04-07T07:47:07;0.50;;;0.50;;
20363;SDS011;10340;53.664;9.908;2023-04-07T07:49:36;0.30;;;0.30;;
20363;SDS011;10340;53.664;9.908;2023-04-07T07:52:03;0.30;;;0.30;;
20363;SDS011;10340;53.664;9.908;2023-04-07T07:54:30;0.30;;;0.30;;
20363;SDS011;10340;53.664;9.908;2023-04-07T07:56:57;0.30;;;0.30;;
20363;SDS011;10340;53.664;9.908;2023-04-07T07:59:24;0.25;;;0.25;;
20363;SDS011;10340;53.664;9.908;2023-04-07T08:01:51;0.30;;;0.30;;
20363;SDS011;10340;53.664;9.908;2023-04-07T08:04:18;0.30;;;0.30;;
20363;SDS011;10340;53.664;9.908;2023-04-07T08:06:48;0.40;;;0.40;;
20363;SDS011;10340;53.664;9.908;2023-04-07T08:09:16;0.30;;;0.30;;
20363;SDS011;10340;53.664;9.908;2023-04-07T08:11:43;0.30;;;0.30;;
20363;SDS011;10340;53.664;9.908;2023-04-07T08:14:10;0.38;;;0.38;;
20363;SDS011;10340;53.664;9.908;2023-04-07T08:16:37;0.30;;;0.30;;
20363;SDS011;10340;53.664;9.908;2023-04-07T08:19:04;0.30;;;0.30;;
20363;SDS011;10340;53.664;9.908;2023-04-07T08:21:31;0.40;;;0.40;;
20363;SDS011;10340;53.664;9.908;2023-04-07T08:23:59;0.30;;;0.30;;
20363;SDS011;10340;53.664;9.908;2023-04-07T08:26:26;0.30;;;0.30;;
20363;SDS011;10340;53.664;9.908;2023-04-07T08:28:53;0.32;;;0.32;;
20363;SDS011;10340;53.664;9.908;2023-04-07T08:31:21;0.30;;;0.30;;
20363;SDS011;10340;53.664;9.908;2023-04-07T08:33:48;0.32;;;0.32;;
20363;SDS011;10340;53.664;9.908;2023-04-07T08:36:18;0.20;;;0.20;;
20363;SDS011;10340;53.664;9.908;2023-04-07T08:38:45;0.30;;;0.30;;
20363;SDS011;10340;53.664;9.908;2023-04-07T08:41:21;0.30;;;0.30;;
20363;SDS011;10340;53.664;9.908;2023-04-07T08:43:53;0.30;;;0.30;;
20363;SDS011;10340;53.664;9.908;2023-04-07T08:46:23;0.30;;;0.30;;
20363;SDS011;10340;53.664;9.908;2023-04-07T08:48:51;0.20;;;0.20;;
20363;SDS011;10340;53.664;9.908;2023-04-07T08:51:22;0.30;;;0.30;;
20363;SDS011;10340;53.664;9.908;2023-04-07T08:53:53;0.35;;;0.35;;
20363;SDS011;10340;53.664;9.908;2023-04-07T08:56:29;0.30;;;0.30;;
20363;SDS011;10340;53.664;9.908;2023-04-07T08:58:59;0.40;;;0.40;;
20363;SDS011;10340;53.664;9.908;2023-04-07T09:01:27;0.30;;;0.30;;
20363;SDS011;10340;53.664;9.908;2023-04-07T09:03:56;0.30;;;0.30;;
20363;SDS011;10340;53.664;9.908;2023-04-07T09:06:23;0.30;;;0.30;;
20363;SDS011;10340;53.664;9.908;2023-04-07T09:08:51;0.20;;;0.20;;
20363;SDS011;10340;53.664;9.908;2023-04-07T09:11:18;0.20;;;0.20;;
20363;SDS011;10340;53.664;9.908;2023-04-07T09:13:47;0.30;;;0.30;;
20363;SDS011;10340;53.664;9.908;2023-04-07T09:16:15;0.30;;;0.30;;
20363;SDS011;10340;53.664;9.908;2023-04-07T09:18:44;0.32;;;0.32;;
20363;SDS011;10340;53.664;9.908;2023-04-07T09:21:12;0.30;;;0.30;;
20363;SDS011;10340;53.664;9.908;2023-04-07T09:23:40;0.20;;;0.20;;
20363;SDS011;10340;53.664;9.908;2023-04-07T09:26:18;0.22;;;0.22;;
20363;SDS011;10340;53.664;9.908;2023-04-07T09:28:50;0.30;;;0.30;;
20363;SDS011;10340;53.664;9.908;2023-04-07T09:31:20;0.30;;;0.30;;
20363;SDS011;10340;53.664;9.908;2023-04-07T09:33:47;0.30;;;0.30;;
20363;SDS011;10340;53.664;9.908;2023-04-07T09:36:14;0.20;;;0.20;;
20363;SDS011;10340;53.664;9.908;2023-04-07T09:38:42;0.20;;;0.20;;
20363;SDS011;10340;53.664;9.908;2023-04-07T09:41:10;0.30;;;0.30;;
20363;SDS011;10340;53.664;9.908;2023-04-07T09:43:42;0.20;;;0.20;;
20363;SDS011;10340;53.664;9.908;2023-04-07T09:46:15;0.30;;;0.30;;
20363;SDS011;10340;53.664;9.908;2023-04-07T09:48:59;0.30;;;0.30;;
20363;SDS011;10340;53.664;9.908;2023-04-07T09:51:29;0.30;;;0.30;;
20363;SDS011;10340;53.664;9.908;2023-04-07T09:53:58;0.20;;;0.20;;
20363;SDS011;10340;53.664;9.908;2023-04-07T09:56:33;0.30;;;0.30;;
20363;SDS011;10340;53.664;9.908;2023-04-07T09:59:00;0.20;;;0.20;;
20363;SDS011;10340;53.664;9.908;2023-04-07T10:01:30;0.20;;;0.20;;
20363;SDS011;10340;53.664;9.908;2023-04-07T10:03:57;0.20;;;0.20;;
20363;SDS011;10340;53.664;9.908;2023-04-07T10:06:25;0.30;;;0.30;;
20363;SDS011;10340;53.664;9.908;2023-04-07T10:08:52;0.20;;;0.20;;
20363;SDS011;10340;53.664;9.908;2023-04-07T10:11:26;0.30;;;0.30;;
20363;SDS011;10340;53.664;9.908;2023-04-07T10:13:53;0.30;;;0.30;;
20363;SDS011;10340;53.664;9.908;2023-04-07T10:16:20;0.20;;;0.20;;
20363;SDS011;10340;53.664;9.908;2023-04-07T10:18:49;0.20;;;0.20;;
20363;SDS011;10340;53.664;9.908;2023-04-07T10:21:16;0.20;;;0.20;;
20363;SDS011;10340;53.664;9.908;2023-04-07T10:23:52;0.20;;;0.20;;
20363;SDS011;10340;53.664;9.908;2023-04-07T10:26:25;0.20;;;0.20;;
20363;SDS011;10340;53.664;9.908;2023-04-07T10:28:57;0.20;;;0.20;;
20363;SDS011;10340;53.664;9.908;2023-04-07T10:31:29;0.30;;;0.30;;
20363;SDS011;10340;53.664;9.908;2023-04-07T10:33:58;0.20;;;0.20;;
20363;SDS011;10340;53.664;9.908;2023-04-07T10:36:26;0.20;;;0.20;;
20363;SDS011;10340;53.664;9.908;2023-04-07T10:41:47;0.30;;;0.30;;
20363;SDS011;10340;53.664;9.908;2023-04-07T10:47:10;0.28;;;0.28;;
20363;SDS011;10340;53.664;9.908;2023-04-07T10:49:39;0.30;;;0.30;;
20363;SDS011;10340;53.664;9.908;2023-04-07T10:52:45;0.30;;;0.30;;
20363;SDS011;10340;53.664;9.908;2023-04-07T10:55:32;0.30;;;0.30;;
20363;SDS011;10340;53.664;9.908;2023-04-07T10:58:16;0.30;;;0.30;;
20363;SDS011;10340;53.664;9.908;2023-04-07T11:03:54;0.30;;;0.30;;
20363;SDS011;10340;53.664;9.908;2023-04-07T11:06:26;0.20;;;0.20;;
20363;SDS011;10340;53.664;9.908;2023-04-07T11:08:53;0.30;;;0.30;;
20363;SDS011;10340;53.664;9.908;2023-04-07T11:11:39;0.30;;;0.30;;
20363;SDS011;10340;53.664;9.908;2023-04-07T11:14:07;0.20;;;0.20;;
20363;SDS011;10340;53.664;9.908;2023-04-07T11:16:34;0.30;;;0.30;;
20363;SDS011;10340;53.664;9.908;2023-04-07T11:19:03;0.30;;;0.30;;
20363;SDS011;10340;53.664;9.908;2023-04-07T11:21:32;0.30;;;0.30;;
20363;SDS011;10340;53.664;9.908;2023-04-07T11:24:00;0.20;;;0.20;;
20363;SDS011;10340;53.664;9.908;2023-04-07T11:26:27;0.20;;;0.20;;
20363;SDS011;10340;53.664;9.908;2023-04-07T11:28:55;0.20;;;0.20;;
20363;SDS011;10340;53.664;9.908;2023-04-07T11:31:23;0.30;;;0.30;;
20363;SDS011;10340;53.664;9.908;2023-04-07T11:33:52;0.20;;;0.20;;
20363;SDS011;10340;53.664;9.908;2023-04-07T11:36:26;0.30;;;0.30;;
20363;SDS011;10340;53.664;9.908;2023-04-07T11:38:56;0.30;;;0.30;;
20363;SDS011;10340;53.664;9.908;2023-04-07T11:41:24;0.28;;;0.28;;
20363;SDS011;10340;53.664;9.908;2023-04-07T11:44:04;0.20;;;0.20;;
20363;SDS011;10340;53.664;9.908;2023-04-07T11:46:32;0.30;;;0.30;;
20363;SDS011;10340;53.664;9.908;2023-04-07T11:49:10;0.30;;;0.30;;
20363;SDS011;10340;53.664;9.908;2023-04-07T11:51:38;0.20;;;0.20;;
20363;SDS011;10340;53.664;9.908;2023-04-07T11:54:07;0.20;;;0.20;;
20363;SDS011;10340;53.664;9.908;2023-04-07T11:56:42;0.30;;;0.30;;
20363;SDS011;10340;53.664;9.908;2023-04-07T11:59:20;0.30;;;0.30;;
20363;SDS011;10340;53.664;9.908;2023-04-07T12:01:48;0.20;;;0.20;;
20363;SDS011;10340;53.664;9.908;2023-04-07T12:04:15;0.30;;;0.30;;
20363;SDS011;10340;53.664;9.908;2023-04-07T12:06:43;0.30;;;0.30;;
20363;SDS011;10340;53.664;9.908;2023-04-07T12:09:26;0.30;;;0.30;;
20363;SDS011;10340;53.664;9.908;2023-04-07T12:11:54;0.20;;;0.20;;
20363;SDS011;10340;53.664;9.908;2023-04-07T12:14:22;0.20;;;0.20;;
20363;SDS011;10340;53.664;9.908;2023-04-07T12:16:49;0.30;;;0.30;;
20363;SDS011;10340;53.664;9.908;2023-04-07T12:19:17;0.20;;;0.20;;
20363;SDS011;10340;53.664;9.908;2023-04-07T12:21:44;0.35;;;0.35;;
20363;SDS011;10340;53.664;9.908;2023-04-07T12:24:11;0.30;;;0.30;;
20363;SDS011;10340;53.664;9.908;2023-04-07T12:26:39;0.20;;;0.20;;
20363;SDS011;10340;53.664;9.908;2023-04-07T12:29:06;0.30;;;0.30;;
20363;SDS011;10340;53.664;9.908;2023-04-07T12:31:33;0.30;;;0.30;;
20363;SDS011;10340;53.664;9.908;2023-04-07T12:34:02;0.30;;;0.30;;
20363;SDS011;10340;53.664;9.908;2023-04-07T12:36:29;0.30;;;0.30;;
20363;SDS011;10340;53.664;9.908;2023-04-07T12:39:03;0.20;;;0.20;;
20363;SDS011;10340;53.664;9.908;2023-04-07T12:41:30;0.30;;;0.30;;
20363;SDS011;10340;53.664;9.908;2023-04-07T12:43:59;0.20;;;0.20;;
20363;SDS011;10340;53.664;9.908;2023-04-07T12:46:26;0.30;;;0.30;;
20363;SDS011;10340;53.664;9.908;2023-04-07T12:48:57;0.30;;;0.30;;
20363;SDS011;10340;53.664;9.908;2023-04-07T12:51:25;0.30;;;0.30;;
20363;SDS011;10340;53.664;9.908;2023-04-07T12:53:54;0.25;;;0.25;;
20363;SDS011;10340;53.664;9.908;2023-04-07T12:56:21;0.30;;;0.30;;
20363;SDS011;10340;53.664;9.908;2023-04-07T12:58:48;0.20;;;0.20;;
20363;SDS011;10340;53.664;9.908;2023-04-07T13:01:16;0.30;;;0.30;;
20363;SDS011;10340;53.664;9.908;2023-04-07T13:03:43;0.30;;;0.30;;
20363;SDS011;10340;53.664;9.908;2023-04-07T13:06:11;0.30;;;0.30;;
20363;SDS011;10340;53.664;9.908;2023-04-07T13:08:38;0.30;;;0.30;;
20363;SDS011;10340;53.664;9.908;2023-04-07T13:11:05;0.30;;;0.30;;
20363;SDS011;10340;53.664;9.908;2023-04-07T13:13:32;0.40;;;0.40;;
20363;SDS011;10340;53.664;9.908;2023-04-07T13:15:59;0.30;;;0.30;;
20363;SDS011;10340;53.664;9.908;2023-04-07T13:18:28;0.28;;;0.28;;
20363;SDS011;10340;53.664;9.908;2023-04-07T13:20:55;0.30;;;0.30;;
20363;SDS011;10340;53.664;9.908;2023-04-07T13:23:22;0.30;;;0.30;;
20363;SDS011;10340;53.664;9.908;2023-04-07T13:25:49;0.20;;;0.20;;
20363;SDS011;10340;53.664;9.908;2023-04-07T13:28:16;0.30;;;0.30;;
20363;SDS011;10340;53.664;9.908;2023-04-07T13:30:45;0.25;;;0.25;;
20363;SDS011;10340;53.664;9.908;2023-04-07T13:33:12;0.20;;;0.20;;
20363;SDS011;10340;53.664;9.908;2023-04-07T13:35:40;0.20;;;0.20;;
20363;SDS011;10340;53.664;9.908;2023-04-07T13:38:07;0.20;;;0.20;;
20363;SDS011;10340;53.664;9.908;2023-04-07T13:40:34;0.30;;;0.30;;
20363;SDS011;10340;53.664;9.908;2023-04-07T13:43:01;0.20;;;0.20;;
20363;SDS011;10340;53.664;9.908;2023-04-07T13:45:28;0.30;;;0.30;;
20363;SDS011;10340;53.664;9.908;2023-04-07T13:47:55;0.20;;;0.20;;
20363;SDS011;10340;53.664;9.908;2023-04-07T13:50:22;0.20;;;0.20;;
20363;SDS011;10340;53.664;9.908;2023-04-07T13:52:51;0.30;;;0.30;;
20363;SDS011;10340;53.664;9.908;2023-04-07T13:55:19;0.30;;;0.30;;
20363;SDS011;10340;53.664;9.908;2023-04-07T13:57:46;0.28;;;0.28;;
20363;SDS011;10340;53.664;9.908;2023-04-07T14:00:13;0.20;;;0.20;;
20363;SDS011;10340;53.664;9.908;2023-04-07T14:02:41;0.20;;;0.20;;
20363;SDS011;10340;53.664;9.908;2023-04-07T14:05:09;0.22;;;0.22;;
20363;SDS011;10340;53.664;9.908;2023-04-07T14:07:36;0.30;;;0.30;;
20363;SDS011;10340;53.664;9.908;2023-04-07T14:10:05;0.20;;;0.20;;
20363;SDS011;10340;53.664;9.908;2023-04-07T14:12:33;0.20;;;0.20;;
20363;SDS011;10340;53.664;9.908;2023-04-07T14:15:00;0.20;;;0.20;;
20363;SDS011;10340;53.664;9.908;2023-04-07T14:17:28;0.30;;;0.30;;
20363;SDS011;10340;53.664;9.908;2023-04-07T14:19:55;0.20;;;0.20;;
20363;SDS011;10340;53.664;9.908;2023-04-07T14:22:22;0.28;;;0.28;;
20363;SDS011;10340;53.664;9.908;2023-04-07T14:24:49;0.40;;;0.40;;
20363;SDS011;10340;53.664;9.908;2023-04-07T14:27:20;0.25;;;0.25;;
20363;SDS011;10340;53.664;9.908;2023-04-07T14:29:47;0.30;;;0.30;;
20363;SDS011;10340;53.664;9.908;2023-04-07T14:32:14;0.22;;;0.22;;
20363;SDS011;10340;53.664;9.908;2023-04-07T14:34:42;0.28;;;0.28;;
20363;SDS011;10340;53.664;9.908;2023-04-07T14:37:09;0.22;;;0.22;;
20363;SDS011;10340;53.664;9.908;2023-04-07T14:39:38;0.30;;;0.30;;
20363;SDS011;10340;53.664;9.908;2023-04-07T14:42:05;0.22;;;0.22;;
20363;SDS011;10340;53.664;9.908;2023-04-07T14:44:33;0.20;;;0.20;;
20363;SDS011;10340;53.664;9.908;2023-04-07T14:47:01;0.40;;;0.40;;
20363;SDS011;10340;53.664;9.908;2023-04-07T14:49:28;0.30;;;0.30;;
20363;SDS011;10340;53.664;9.908;2023-04-07T14:51:55;0.20;;;0.20;;
20363;SDS011;10340;53.664;9.908;2023-04-07T14:54:22;0.20;;;0.20;;
20363;SDS011;10340;53.664;9.908;2023-04-07T14:56:49;0.22;;;0.22;;
20363;SDS011;10340;53.664;9.908;2023-04-07T14:59:16;0.30;;;0.30;;
20363;SDS011;10340;53.664;9.908;2023-04-07T15:01:45;0.30;;;0.30;;
20363;SDS011;10340;53.664;9.908;2023-04-07T15:04:12;0.30;;;0.30;;
20363;SDS011;10340;53.664;9.908;2023-04-07T15:06:39;0.30;;;0.30;;